Time;durP1;ratioP1;P1;durP2;ratioP2;P2;SDS_P1;SDS_P2;PMS_P1;PMS_P2;Temp;Humidity;BMP_temperature;BMP_pressure;BME280_temperature;BME280_humidity;BME280_pressure;Samples;Min_cycle;Max_cycle;Signal;HPM_P1;HPM_P2
2023/07/12 00:01:41;;;;;;;6.47;4.20;;;26.00;51.10;;;;;;6202644;27;81193;-59
2023/07/12 00:04:41;;;;;;;6.13;3.78;;;26.00;51.00;;;;;;6187558;28;80482;-58
2023/07/12 00:07:45;;;;;;;7.00;4.25;;;26.00;50.90;;;;;;6179650;28;81079;-59
2023/07/12 00:10:46;;;;;;;6.90;3.88;;;26.00;50.90;;;;;;6189812;28;80310;-58
2023/07/12 00:13:46;;;;;;;8.75;4.25;;;26.00;50.90;;;;;;6181479;28;80885;-58
2023/07/12 00:16:47;;;;;;;10.35;4.13;;;26.10;51.30;;;;;;6178226;28;80360;-58
2023/07/12 00:19:47;;;;;;;6.22;3.75;;;26.10;51.40;;;;;;6178834;28;80811;-57
2023/07/12 00:22:48;;;;;;;10.48;5.05;;;26.10;51.40;;;;;;6177671;28;81134;-58
2023/07/12 00:25:48;;;;;;;4.88;4.18;;;26.10;51.30;;;;;;6197590;27;80972;-58
2023/07/12 00:28:49;;;;;;;5.70;3.60;;;26.20;51.40;;;;;;6196774;27;84926;-60
2023/07/12 00:31:49;;;;;;;6.53;3.95;;;26.20;51.30;;;;;;6188883;28;81668;-58
2023/07/12 00:34:50;;;;;;;6.22;4.45;;;26.20;51.60;;;;;;6188793;28;83305;-57
2023/07/12 00:37:52;;;;;;;7.55;4.13;;;26.20;51.60;;;;;;6191821;28;80946;-58
2023/07/12 00:40:53;;;;;;;5.15;3.72;;;26.20;51.70;;;;;;6188255;28;80534;-58
2023/07/12 00:43:54;;;;;;;6.47;4.10;;;26.20;51.80;;;;;;6200325;28;82220;-59
2023/07/12 00:46:55;;;;;;;6.88;4.05;;;26.20;51.80;;;;;;6209992;28;86362;-57
2023/07/12 00:49:55;;;;;;;7.90;4.65;;;26.20;51.70;;;;;;6200899;28;83589;-56
2023/07/12 00:52:56;;;;;;;6.53;4.07;;;26.10;51.80;;;;;;6201810;28;83192;-55
2023/07/12 00:55:57;;;;;;;7.07;4.07;;;26.10;52.00;;;;;;6224280;28;83522;-56
2023/07/12 00:58:57;;;;;;;6.63;4.35;;;26.20;52.80;;;;;;6220450;27;81093;-55
2023/07/12 01:01:58;;;;;;;6.55;4.10;;;26.20;52.20;;;;;;6194766;28;81405;-55
2023/07/12 01:04:59;;;;;;;5.82;4.20;;;26.10;52.10;;;;;;6202531;28;83460;-55
2023/07/12 01:08:01;;;;;;;5.53;3.90;;;26.10;52.10;;;;;;6181363;28;80791;-53
2023/07/12 01:11:03;;;;;;;7.82;4.68;;;26.10;52.20;;;;;;6182957;28;83248;-56
2023/07/12 01:14:03;;;;;;;6.38;4.30;;;26.20;52.20;;;;;;6182539;27;80632;-54
2023/07/12 01:17:04;;;;;;;7.13;4.30;;;26.10;52.20;;;;;;6187046;28;80788;-53
2023/07/12 01:20:04;;;;;;;6.07;4.10;;;26.20;52.20;;;;;;6190776;28;81733;-52
2023/07/12 01:23:09;;;;;;;6.30;4.20;;;26.10;52.10;;;;;;6200464;27;81470;-59
2023/07/12 01:26:09;;;;;;;7.03;4.03;;;26.20;52.10;;;;;;6217324;27;83048;-59
2023/07/12 01:29:10;;;;;;;6.40;4.22;;;26.20;52.10;;;;;;6187963;28;81002;-60
2023/07/12 01:32:11;;;;;;;9.95;4.30;;;26.10;52.10;;;;;;6201549;28;80307;-59
2023/07/12 01:35:11;;;;;;;6.85;4.03;;;26.00;52.10;;;;;;6188589;28;81886;-58
2023/07/12 01:38:12;;;;;;;7.18;4.05;;;26.00;52.10;;;;;;6210494;28;80561;-59
2023/07/12 01:41:13;;;;;;;6.40;4.28;;;26.00;52.10;;;;;;6197946;28;80675;-61
2023/07/12 01:44:14;;;;;;;6.57;4.00;;;26.10;52.10;;;;;;6214164;27;83422;-60
2023/07/12 01:47:14;;;;;;;6.65;4.03;;;26.00;52.10;;;;;;6176977;28;83578;-59
2023/07/12 01:50:15;;;;;;;7.28;4.57;;;26.00;52.00;;;;;;6177924;28;83731;-58
2023/07/12 01:53:15;;;;;;;8.30;4.60;;;26.00;52.00;;;;;;6176630;28;80566;-60
2023/07/12 01:56:16;;;;;;;12.20;4.10;;;26.00;51.90;;;;;;6191772;28;82763;-58
2023/07/12 01:59:16;;;;;;;7.97;4.57;;;26.00;51.80;;;;;;6175501;28;83044;-59
2023/07/12 02:02:17;;;;;;;6.75;4.85;;;26.00;51.80;;;;;;6191502;28;83543;-62
2023/07/12 02:05:18;;;;;;;8.85;4.50;;;26.00;51.70;;;;;;6176983;27;81026;-62
2023/07/12 02:08:19;;;;;;;6.50;4.28;;;26.00;51.90;;;;;;6190851;28;82986;-59
2023/07/12 02:11:20;;;;;;;5.45;4.20;;;25.90;51.80;;;;;;6190643;28;81023;-58
2023/07/12 02:14:20;;;;;;;6.22;4.30;;;25.90;51.90;;;;;;6182863;28;84069;-59
2023/07/12 02:17:21;;;;;;;6.43;3.95;;;25.90;52.10;;;;;;6185289;28;83179;-58
2023/07/12 02:20:21;;;;;;;8.30;4.78;;;25.90;52.20;;;;;;6185702;28;80852;-61
2023/07/12 02:23:22;;;;;;;7.53;4.47;;;26.00;52.30;;;;;;6188677;28;81307;-61
2023/07/12 02:26:22;;;;;;;6.78;4.70;;;26.00;52.50;;;;;;6176437;28;80562;-60
2023/07/12 02:29:23;;;;;;;8.00;4.53;;;26.00;52.60;;;;;;6184500;28;80399;-60
2023/07/12 02:32:25;;;;;;;9.02;4.93;;;26.00;52.80;;;;;;6192443;28;80856;-61
2023/07/12 02:35:27;;;;;;;7.10;4.45;;;26.00;52.80;;;;;;6176256;28;82194;-61
2023/07/12 02:38:28;;;;;;;9.30;4.78;;;26.00;52.80;;;;;;6174730;28;80995;-58
2023/07/12 02:41:28;;;;;;;10.55;5.75;;;26.00;53.00;;;;;;6191481;28;81588;-58
2023/07/12 02:44:29;;;;;;;7.65;4.90;;;26.00;52.90;;;;;;6187500;28;80799;-60
2023/07/12 02:47:29;;;;;;;8.00;4.80;;;26.00;52.90;;;;;;6200632;27;81528;-59
2023/07/12 02:50:30;;;;;;;7.15;4.95;;;26.00;52.90;;;;;;6186879;28;80400;-59
2023/07/12 02:53:31;;;;;;;13.60;5.03;;;26.00;53.00;;;;;;6187132;28;81362;-58
2023/07/12 02:56:31;;;;;;;12.82;5.30;;;26.00;53.10;;;;;;6199097;27;80494;-57
2023/07/12 02:59:32;;;;;;;10.30;5.30;;;26.00;53.10;;;;;;6199109;27;80425;-57
2023/07/12 03:02:33;;;;;;;9.95;4.88;;;26.00;53.20;;;;;;6187455;28;81576;-59
2023/07/12 03:05:33;;;;;;;6.60;4.70;;;26.00;53.20;;;;;;6199205;27;80835;-59
2023/07/12 03:08:34;;;;;;;10.35;4.60;;;25.90;53.30;;;;;;6186607;28;80730;-60
2023/07/12 03:11:34;;;;;;;10.07;5.50;;;26.00;53.30;;;;;;6199151;27;80716;-60
2023/07/12 03:14:36;;;;;;;7.65;5.28;;;25.90;53.30;;;;;;6198629;27;80790;-51
2023/07/12 03:17:37;;;;;;;10.98;5.07;;;25.90;53.20;;;;;;6191858;28;80357;-54
2023/07/12 03:20:37;;;;;;;9.73;5.97;;;25.90;53.10;;;;;;6196946;27;80461;-54
2023/07/12 03:23:38;;;;;;;12.75;6.32;;;25.90;53.20;;;;;;6198959;28;81229;-56
2023/07/12 03:26:38;;;;;;;11.45;5.38;;;25.90;53.30;;;;;;6196492;27;81028;-54
2023/07/12 03:29:39;;;;;;;8.02;5.85;;;25.90;53.30;;;;;;6198494;28;80476;-56
2023/07/12 03:32:39;;;;;;;16.58;5.95;;;25.90;53.50;;;;;;6196957;28;84477;-53
2023/07/12 03:35:40;;;;;;;25.58;6.18;;;25.90;53.60;;;;;;6196298;28;81318;-55
2023/07/12 03:38:40;;;;;;;10.32;5.90;;;25.90;53.70;;;;;;6199640;27;80923;-53
2023/07/12 03:41:41;;;;;;;10.30;6.03;;;25.90;53.90;;;;;;6190270;27;80787;-49
2023/07/12 03:44:41;;;;;;;9.68;6.18;;;25.80;53.90;;;;;;6179748;28;80803;-56
2023/07/12 03:47:42;;;;;;;10.25;6.05;;;25.80;54.10;;;;;;6177446;28;79967;-55
2023/07/12 03:50:42;;;;;;;15.55;6.20;;;25.80;54.20;;;;;;6186369;28;81554;-59
2023/07/12 03:53:43;;;;;;;9.90;5.38;;;25.80;54.30;;;;;;6190137;28;83377;-58
2023/07/12 03:56:43;;;;;;;10.60;6.45;;;25.90;54.50;;;;;;6180150;28;80828;-56
2023/07/12 03:59:44;;;;;;;10.68;6.28;;;25.90;54.50;;;;;;6179503;28;84545;-57
2023/07/12 04:02:44;;;;;;;12.52;6.15;;;25.90;54.60;;;;;;6180475;28;80960;-57
2023/07/12 04:05:45;;;;;;;10.75;6.32;;;25.90;54.80;;;;;;6193864;28;80559;-58
2023/07/12 04:08:46;;;;;;;10.70;6.07;;;25.90;54.80;;;;;;6183143;28;80145;-59
2023/07/12 04:11:46;;;;;;;8.35;5.55;;;25.90;54.80;;;;;;6182939;28;82217;-58
2023/07/12 04:14:47;;;;;;;9.40;5.85;;;25.90;55.00;;;;;;6197711;27;81099;-57
2023/07/12 04:17:47;;;;;;;10.00;5.50;;;25.90;54.90;;;;;;6179576;28;85569;-58
2023/07/12 04:20:48;;;;;;;9.43;6.13;;;25.90;55.00;;;;;;6186187;27;82622;-59
2023/07/12 04:23:48;;;;;;;15.38;6.07;;;25.90;54.90;;;;;;6189525;27;82422;-58
2023/07/12 04:26:49;;;;;;;8.90;5.45;;;25.90;54.90;;;;;;6196476;27;82877;-57
2023/07/12 04:29:49;;;;;;;11.02;6.13;;;25.90;55.00;;;;;;6193207;28;80781;-58
2023/07/12 04:32:52;;;;;;;11.10;5.53;;;25.90;55.10;;;;;;6188361;27;81014;-59
2023/07/12 04:35:52;;;;;;;12.48;6.65;;;26.00;55.10;;;;;;6198209;27;81496;-59
2023/07/12 04:38:53;;;;;;;8.23;5.72;;;26.00;55.20;;;;;;6197843;27;88358;-58
2023/07/12 04:41:53;;;;;;;13.88;6.03;;;26.00;55.00;;;;;;6190229;27;83524;-60
2023/07/12 04:44:54;;;;;;;8.90;6.10;;;26.00;55.40;;;;;;6189425;27;81021;-60
2023/07/12 04:47:54;;;;;;;12.10;5.75;;;26.00;55.30;;;;;;6177485;28;82759;-60
2023/07/12 04:50:55;;;;;;;12.23;6.57;;;26.10;55.50;;;;;;6186037;28;81329;-64
2023/07/12 04:53:55;;;;;;;10.77;6.03;;;26.00;55.80;;;;;;6199133;27;81202;-59
2023/07/12 04:56:56;;;;;;;11.40;6.78;;;26.00;56.00;;;;;;6177247;28;80058;-59
2023/07/12 04:59:57;;;;;;;14.10;6.75;;;26.00;56.30;;;;;;6198719;27;81423;-60
2023/07/12 05:02:57;;;;;;;9.48;6.20;;;25.90;56.40;;;;;;6199891;27;80389;-58
2023/07/12 05:05:58;;;;;;;13.55;6.90;;;26.00;56.40;;;;;;6199174;28;80483;-59
2023/07/12 05:08:58;;;;;;;12.75;5.50;;;25.90;57.50;;;;;;6188273;28;80763;-61
2023/07/12 05:11:59;;;;;;;14.50;5.88;;;25.90;56.90;;;;;;6188635;27;80969;-63
2023/07/12 05:14:59;;;;;;;11.40;5.80;;;25.90;57.00;;;;;;6189253;28;80896;-63
2023/07/12 05:18:00;;;;;;;14.45;6.22;;;26.00;57.10;;;;;;6184035;28;80586;-61
2023/07/12 05:21:00;;;;;;;11.23;6.10;;;26.00;57.40;;;;;;6197055;28;80707;-62
2023/07/12 05:24:01;;;;;;;16.08;6.80;;;26.00;57.40;;;;;;6220927;28;80518;-59
2023/07/12 05:27:01;;;;;;;11.05;5.78;;;26.00;57.70;;;;;;6224283;27;82246;-59
2023/07/12 05:30:02;;;;;;;14.25;6.82;;;26.00;57.50;;;;;;6222545;27;80471;-58
2023/07/12 05:33:03;;;;;;;15.65;7.97;;;26.10;57.50;;;;;;6217285;27;80854;-59
2023/07/12 05:36:03;;;;;;;17.55;6.95;;;26.10;57.30;;;;;;6223205;27;80487;-58
2023/07/12 05:39:04;;;;;;;20.02;7.78;;;26.10;57.20;;;;;;6222384;27;81330;-54
2023/07/12 05:42:04;;;;;;;18.42;9.60;;;26.20;58.40;;;;;;6220453;27;80987;-55
2023/07/12 05:45:05;;;;;;;14.48;8.88;;;26.20;57.80;;;;;;6224406;27;81581;-56
2023/07/12 05:48:05;;;;;;;18.10;8.35;;;26.30;57.90;;;;;;6213209;28;82226;-58
2023/07/12 05:51:07;;;;;;;27.95;11.38;;;26.30;57.70;;;;;;6213301;27;80473;-61
2023/07/12 05:54:08;;;;;;;24.00;12.30;;;26.30;58.00;;;;;;6202354;27;83045;-56
2023/07/12 05:57:08;;;;;;;21.77;12.77;;;26.30;58.60;;;;;;6177694;28;83624;-59
2023/07/12 06:00:10;;;;;;;21.30;11.63;;;26.30;58.60;;;;;;6175422;28;83328;-65
2023/07/12 06:03:11;;;;;;;14.20;9.82;;;26.40;58.50;;;;;;6187037;28;83248;-69
2023/07/12 06:06:12;;;;;;;17.10;8.75;;;26.40;58.30;;;;;;6136737;28;83714;-65
2023/07/12 06:09:12;;;;;;;13.13;8.43;;;26.40;58.20;;;;;;6196656;27;80880;-65
2023/07/12 06:12:13;;;;;;;15.65;8.20;;;26.40;58.10;;;;;;6200519;27;80473;-65
2023/07/12 06:15:13;;;;;;;14.07;7.32;;;26.40;57.70;;;;;;6200182;27;81195;-67
2023/07/12 06:18:14;;;;;;;17.00;6.10;;;26.40;57.70;;;;;;6178637;27;80446;-65
2023/07/12 06:21:14;;;;;;;11.75;5.90;;;26.40;57.50;;;;;;6197549;28;80798;-64
2023/07/12 06:24:15;;;;;;;12.55;5.82;;;26.40;57.40;;;;;;6204363;27;81537;-65
2023/07/12 06:27:15;;;;;;;11.27;5.65;;;26.40;57.60;;;;;;6199534;28;80724;-60
2023/07/12 06:30:16;;;;;;;22.50;6.05;;;26.40;57.70;;;;;;6198377;28;80626;-59
2023/07/12 06:33:16;;;;;;;12.45;5.50;;;26.40;57.70;;;;;;6197537;28;80877;-57
2023/07/12 06:36:17;;;;;;;13.27;6.50;;;26.40;57.60;;;;;;6218291;28;85488;-58
2023/07/12 06:39:17;;;;;;;9.40;4.68;;;26.40;57.50;;;;;;6218356;27;82500;-59
2023/07/12 06:42:18;;;;;;;14.45;5.10;;;26.40;57.70;;;;;;6185151;28;80728;-60
2023/07/12 06:45:20;;;;;;;10.55;5.55;;;26.40;57.80;;;;;;6190154;28;82781;-61
2023/07/12 06:48:21;;;;;;;10.75;5.43;;;26.40;57.90;;;;;;6189300;27;80228;-68
2023/07/12 06:51:21;;;;;;;7.93;5.00;;;26.40;57.90;;;;;;6197407;27;80669;-67
2023/07/12 06:54:22;;;;;;;12.32;5.50;;;26.40;57.60;;;;;;6189603;27;81589;-66
2023/07/12 06:57:22;;;;;;;11.02;5.00;;;26.40;58.00;;;;;;6191976;28;80723;-67
2023/07/12 07:00:23;;;;;;;13.55;5.53;;;26.50;58.20;;;;;;6179067;28;83865;-67
2023/07/12 07:03:23;;;;;;;14.60;5.53;;;26.50;58.30;;;;;;6176476;28;80648;-65
2023/07/12 07:06:24;;;;;;;12.45;5.70;;;26.50;58.40;;;;;;6181721;28;80450;-66
2023/07/12 07:09:25;;;;;;;13.27;6.13;;;26.50;58.40;;;;;;6188200;28;81641;-66
2023/07/12 07:12:25;;;;;;;10.95;5.35;;;26.50;58.20;;;;;;6192692;28;81208;-61
2023/07/12 07:15:26;;;;;;;21.70;6.03;;;26.50;58.50;;;;;;6184013;27;80407;-61
2023/07/12 07:18:26;;;;;;;14.27;5.70;;;26.50;58.40;;;;;;6192280;28;81322;-63
2023/07/12 07:21:27;;;;;;;12.88;5.10;;;26.50;58.50;;;;;;6186531;28;83398;-62
2023/07/12 07:24:27;;;;;;;13.07;5.68;;;26.50;58.40;;;;;;6177697;28;82134;-61
2023/07/12 07:27:29;;;;;;;14.50;5.68;;;26.60;58.40;;;;;;6177791;28;80548;-62
2023/07/12 07:30:31;;;;;;;12.85;5.35;;;26.60;58.40;;;;;;6182648;28;84585;-56
2023/07/12 07:33:31;;;;;;;12.60;6.45;;;26.60;58.50;;;;;;6200007;28;80510;-56
2023/07/12 07:36:32;;;;;;;10.30;4.88;;;26.50;58.20;;;;;;6208497;27;80385;-58
2023/07/12 07:39:32;;;;;;;13.13;5.85;;;26.60;58.40;;;;;;6215713;28;80435;-60
2023/07/12 07:42:33;;;;;;;10.82;5.28;;;26.50;58.40;;;;;;6181195;28;81605;-59
2023/07/12 07:45:33;;;;;;;12.73;4.97;;;26.50;58.90;;;;;;6177862;28;81636;-58
2023/07/12 07:48:34;;;;;;;10.63;5.63;;;26.60;58.60;;;;;;6179571;28;80705;-60
2023/07/12 07:51:34;;;;;;;10.70;4.88;;;26.70;58.80;;;;;;6185123;27;80151;-59
2023/07/12 07:54:35;;;;;;;14.82;5.60;;;26.80;58.60;;;;;;6193875;27;80668;-56
2023/07/12 07:57:36;;;;;;;22.40;5.57;;;26.80;58.80;;;;;;6185502;28;80900;-59
2023/07/12 08:00:36;;;;;;;23.20;6.18;;;26.90;59.10;;;;;;6194928;27;80740;-60
2023/07/12 08:03:37;;;;;;;12.10;5.30;;;26.90;59.10;;;;;;6196835;27;81290;-58
2023/07/12 08:06:38;;;;;;;10.45;5.95;;;27.00;59.00;;;;;;6196729;27;81200;-57
2023/07/12 08:09:39;;;;;;;6.93;5.13;;;27.00;58.90;;;;;;6182668;28;80808;-56
2023/07/12 08:12:39;;;;;;;12.40;5.45;;;27.10;59.00;;;;;;6196007;28;80754;-55
2023/07/12 08:15:40;;;;;;;8.50;5.40;;;27.10;59.10;;;;;;6203327;27;80927;-54
2023/07/12 08:18:40;;;;;;;9.23;5.15;;;27.10;59.00;;;;;;6202869;27;80152;-56
2023/07/12 08:21:41;;;;;;;11.40;5.43;;;27.20;59.20;;;;;;6187779;28;80882;-58
2023/07/12 08:24:42;;;;;;;8.07;4.82;;;27.20;59.30;;;;;;6179220;28;82169;-58
2023/07/12 08:27:42;;;;;;;9.18;5.40;;;27.20;58.90;;;;;;6173026;28;82672;-68
2023/07/12 08:30:43;;;;;;;9.20;5.13;;;27.20;59.00;;;;;;6176077;28;81122;-68
2023/07/12 08:33:44;;;;;;;10.98;6.13;;;27.20;58.10;;;;;;6184895;28;83400;-66
2023/07/12 08:36:44;;;;;;;8.80;5.68;;;27.20;57.80;;;;;;6193640;27;81842;-68
2023/07/12 08:39:45;;;;;;;10.10;6.25;;;27.30;57.10;;;;;;6199024;28;82639;-69
2023/07/12 08:42:45;;;;;;;10.07;6.47;;;27.30;57.10;;;;;;6190218;28;80334;-68
2023/07/12 08:45:46;;;;;;;8.68;5.97;;;27.40;57.00;;;;;;6176725;28;80369;-68
2023/07/12 08:48:46;;;;;;;11.68;6.25;;;27.50;56.80;;;;;;6177445;28;80616;-67
2023/07/12 08:51:47;;;;;;;7.78;5.72;;;27.50;56.10;;;;;;6176604;28;80461;-64
2023/07/12 08:54:48;;;;;;;8.63;6.22;;;27.60;55.60;;;;;;6173213;28;80455;-66
2023/07/12 08:57:48;;;;;;;7.22;5.30;;;27.70;55.00;;;;;;6193405;28;81188;-68
2023/07/12 09:00:49;;;;;;;11.48;5.88;;;27.70;55.10;;;;;;6178773;28;84394;-70
2023/07/12 09:03:49;;;;;;;9.82;6.10;;;27.80;55.10;;;;;;6184164;28;81281;-67
2023/07/12 09:06:50;;;;;;;8.52;6.05;;;27.90;54.60;;;;;;6176757;28;80897;-67
2023/07/12 09:09:51;;;;;;;11.70;6.10;;;28.00;54.50;;;;;;6192880;28;81073;-66
2023/07/12 09:12:51;;;;;;;11.23;6.22;;;28.00;54.80;;;;;;6192923;28;81761;-65
2023/07/12 09:15:52;;;;;;;8.40;5.38;;;28.00;54.60;;;;;;6189524;28;81290;-65
2023/07/12 09:18:52;;;;;;;9.10;6.25;;;28.10;53.80;;;;;;6182988;28;80514;-70
2023/07/12 09:21:53;;;;;;;10.98;6.03;;;28.10;53.90;;;;;;6200544;27;81634;-59
2023/07/12 09:24:54;;;;;;;8.77;5.72;;;28.10;54.00;;;;;;6204385;27;80794;-57
2023/07/12 09:27:54;;;;;;;6.93;5.78;;;28.10;54.30;;;;;;6194434;27;81227;-57
2023/07/12 09:30:55;;;;;;;10.32;5.88;;;28.10;53.80;;;;;;6200775;28;80299;-60
2023/07/12 09:33:58;;;;;;;8.43;6.50;;;28.10;53.70;;;;;;6204195;28;83151;-59
2023/07/12 09:36:58;;;;;;;9.77;6.32;;;28.10;53.50;;;;;;6210176;27;80768;-59
2023/07/12 09:39:59;;;;;;;7.57;6.10;;;28.20;53.50;;;;;;6218036;27;80386;-60
2023/07/12 09:42:59;;;;;;;9.10;5.68;;;28.20;54.40;;;;;;6216605;27;80310;-60
2023/07/12 09:46:00;;;;;;;7.65;5.95;;;28.20;54.20;;;;;;6217028;28;81433;-59
2023/07/12 09:49:00;;;;;;;12.32;5.68;;;28.10;54.60;;;;;;6195167;27;80576;-59
2023/07/12 09:52:01;;;;;;;11.73;6.00;;;28.10;55.20;;;;;;6179051;28;80318;-58
2023/07/12 09:55:03;;;;;;;7.20;5.63;;;28.00;54.50;;;;;;6180358;28;80687;-58
2023/07/12 09:58:04;;;;;;;8.95;5.93;;;28.00;54.40;;;;;;6192985;27;80816;-59
2023/07/12 10:01:04;;;;;;;15.10;6.57;;;27.90;54.80;;;;;;6185289;27;80846;-59
2023/07/12 10:04:05;;;;;;;10.57;6.47;;;27.90;55.50;;;;;;6189699;27;80900;-60
2023/07/12 10:07:05;;;;;;;13.10;6.30;;;27.80;57.50;;;;;;6187262;27;81499;-60
2023/07/12 10:10:06;;;;;;;11.57;7.28;;;27.80;60.90;;;;;;6194807;28;81855;-60
2023/07/12 10:13:06;;;;;;;12.00;7.22;;;27.80;63.50;;;;;;6190067;27;85038;-59
2023/07/12 10:16:07;;;;;;;11.10;7.75;;;27.70;64.40;;;;;;6198324;27;80361;-58
2023/07/12 10:19:07;;;;;;;14.65;7.03;;;27.60;65.80;;;;;;6195886;27;80627;-59
2023/07/12 10:22:08;;;;;;;21.48;8.82;;;27.60;67.10;;;;;;6183410;27;80221;-60
2023/07/12 10:25:10;;;;;;;12.75;8.52;;;27.50;68.60;;;;;;6191982;28;80648;-59
2023/07/12 10:28:10;;;;;;;12.13;8.52;;;27.40;70.10;;;;;;6192737;27;81155;-59
2023/07/12 10:31:11;;;;;;;13.63;7.97;;;27.40;70.30;;;;;;6192504;28;80557;-57
2023/07/12 10:34:11;;;;;;;16.73;7.97;;;27.30;70.90;;;;;;6198899;28;80528;-59
2023/07/12 10:37:12;;;;;;;17.40;8.85;;;27.30;71.60;;;;;;6219113;27;80617;-60
2023/07/12 10:40:13;;;;;;;17.10;8.70;;;27.30;73.10;;;;;;6224951;27;80916;-59
2023/07/12 10:43:13;;;;;;;18.33;8.93;;;27.30;73.50;;;;;;6221854;27;80449;-60
2023/07/12 10:46:14;;;;;;;16.48;8.70;;;27.30;73.50;;;;;;6226153;28;82449;-59
2023/07/12 10:49:15;;;;;;;12.52;7.75;;;27.40;73.40;;;;;;6215412;28;80591;-60
2023/07/12 10:52:15;;;;;;;18.17;8.10;;;27.40;74.60;;;;;;6205288;27;82536;-63
2023/07/12 10:55:16;;;;;;;19.60;9.32;;;27.50;75.90;;;;;;6198655;27;80613;-62
2023/07/12 10:58:16;;;;;;;17.42;8.52;;;27.50;75.40;;;;;;6204033;27;80811;-62
2023/07/12 11:01:17;;;;;;;13.77;8.52;;;27.50;75.80;;;;;;6198670;27;80914;-61
2023/07/12 11:04:17;;;;;;;13.90;8.35;;;27.60;76.30;;;;;;6201986;27;81152;-62
2023/07/12 11:07:18;;;;;;;12.43;7.80;;;27.60;76.70;;;;;;6203038;27;80983;-61
2023/07/12 11:10:19;;;;;;;13.27;7.80;;;27.60;76.10;;;;;;6202739;27;84079;-62
2023/07/12 11:13:19;;;;;;;9.27;7.40;;;27.60;75.70;;;;;;6202462;27;80797;-63
2023/07/12 11:16:20;;;;;;;11.77;6.65;;;27.70;74.40;;;;;;6199514;27;81672;-62
2023/07/12 11:19:21;;;;;;;12.27;7.53;;;27.80;72.80;;;;;;6197406;27;80870;-63
2023/07/12 11:22:21;;;;;;;9.63;6.22;;;27.90;71.10;;;;;;6191334;28;81112;-63
2023/07/12 11:25:22;;;;;;;10.88;7.03;;;28.00;70.40;;;;;;6182094;28;80796;-63
2023/07/12 11:28:22;;;;;;;10.77;7.25;;;28.00;70.40;;;;;;6195742;28;80610;-66
2023/07/12 11:31:26;;;;;;;10.40;6.93;;;28.10;69.70;;;;;;6202513;28;80942;-65
2023/07/12 11:34:27;;;;;;;8.02;6.47;;;28.10;68.40;;;;;;6202192;28;80777;-69
2023/07/12 11:37:27;;;;;;;9.32;6.15;;;28.10;68.10;;;;;;6219900;27;80860;-62
2023/07/12 11:40:28;;;;;;;12.38;6.38;;;27.90;67.00;;;;;;6216009;28;80262;-61
2023/07/12 11:43:29;;;;;;;9.93;6.38;;;28.00;67.00;;;;;;6180057;28;81090;-62
2023/07/12 11:46:29;;;;;;;8.55;6.38;;;28.00;66.80;;;;;;6183771;28;82020;-60
2023/07/12 11:49:30;;;;;;;12.32;6.53;;;28.00;67.00;;;;;;6189265;27;80679;-59
2023/07/12 11:52:30;;;;;;;8.88;6.97;;;28.10;67.50;;;;;;6195378;27;80731;-60
2023/07/12 11:55:31;;;;;;;10.18;6.53;;;28.10;67.60;;;;;;6214166;28;80725;-60
2023/07/12 11:58:32;;;;;;;10.40;6.78;;;28.20;67.40;;;;;;6195277;28;80518;-62
2023/07/12 12:01:32;;;;;;;15.60;7.18;;;28.10;67.50;;;;;;6198249;28;80523;-58
2023/07/12 12:04:33;;;;;;;8.63;6.70;;;28.10;67.40;;;;;;6190188;28;80724;-62
2023/07/12 12:07:33;;;;;;;11.10;6.65;;;28.00;67.50;;;;;;6198091;27;80121;-59
2023/07/12 12:10:34;;;;;;;11.60;7.05;;;28.00;67.30;;;;;;6183686;27;82131;-59
2023/07/12 12:13:34;;;;;;;14.85;7.00;;;28.00;67.00;;;;;;6198736;27;80245;-59
2023/07/12 12:16:35;;;;;;;11.45;6.75;;;28.00;66.60;;;;;;6199625;27;81581;-61
2023/07/12 12:19:35;;;;;;;11.20;6.85;;;28.00;65.10;;;;;;6199966;27;81526;-59
2023/07/12 12:22:36;;;;;;;10.73;6.30;;;27.90;64.80;;;;;;6191933;28;80742;-58
2023/07/12 12:25:36;;;;;;;10.30;6.07;;;27.90;64.30;;;;;;6195014;27;80405;-60
2023/07/12 12:28:37;;;;;;;11.75;5.88;;;27.90;63.60;;;;;;6188039;28;82136;-60
2023/07/12 12:31:37;;;;;;;15.65;5.95;;;27.90;63.40;;;;;;6194810;28;87196;-65
2023/07/12 12:34:38;;;;;;;15.15;6.47;;;27.80;63.60;;;;;;6200573;28;81265;-64
2023/07/12 12:37:39;;;;;;;8.35;6.28;;;27.80;63.50;;;;;;6221674;27;81328;-62
2023/07/12 12:40:39;;;;;;;15.23;6.80;;;27.80;63.30;;;;;;6210589;28;80373;-62
2023/07/12 12:43:40;;;;;;;18.67;6.45;;;27.70;62.40;;;;;;6180875;28;81032;-58
2023/07/12 12:46:40;;;;;;;10.02;6.03;;;27.70;62.20;;;;;;6199951;27;81390;-66
2023/07/12 12:49:41;;;;;;;11.75;6.25;;;27.70;61.30;;;;;;6196016;27;80395;-64
2023/07/12 12:52:42;;;;;;;10.63;6.22;;;27.70;61.80;;;;;;6197919;27;82144;-64
2023/07/12 12:55:42;;;;;;;11.73;6.03;;;27.70;61.70;;;;;;6194806;27;80467;-66
2023/07/12 12:58:43;;;;;;;8.52;6.25;;;27.70;61.70;;;;;;6196761;27;82125;-66
2023/07/12 13:01:43;;;;;;;14.73;7.22;;;27.70;60.80;;;;;;6191776;27;80686;-59
2023/07/12 13:04:44;;;;;;;11.48;6.13;;;27.70;60.70;;;;;;6200034;28;80881;-56
2023/07/12 13:07:44;;;;;;;11.43;6.70;;;27.60;60.40;;;;;;6199769;27;80714;-59
2023/07/12 13:10:45;;;;;;;13.45;6.18;;;27.60;60.90;;;;;;6201680;28;81097;-58
2023/07/12 13:13:46;;;;;;;13.35;5.95;;;27.60;60.30;;;;;;6197607;27;80313;-58
2023/07/12 13:16:47;;;;;;;21.95;6.72;;;27.60;60.60;;;;;;6202970;27;80701;-58
2023/07/12 13:19:47;;;;;;;12.25;6.32;;;27.60;60.90;;;;;;6200948;27;80199;-62
2023/07/12 13:22:48;;;;;;;12.55;5.93;;;27.70;60.90;;;;;;6201616;27;81275;-58
2023/07/12 13:25:50;;;;;;;8.43;6.28;;;27.70;61.20;;;;;;6202230;27;80698;-59
2023/07/12 13:28:51;;;;;;;13.43;6.90;;;27.70;61.20;;;;;;6194595;28;82801;-59
2023/07/12 13:31:52;;;;;;;14.52;8.13;;;27.70;61.00;;;;;;6195073;27;80312;-57
2023/07/12 13:34:52;;;;;;;14.82;6.40;;;27.70;61.40;;;;;;6193550;27;82745;-59
2023/07/12 13:37:53;;;;;;;15.55;6.70;;;27.70;61.50;;;;;;6199477;27;80783;-59
2023/07/12 13:40:53;;;;;;;16.15;7.55;;;27.70;61.30;;;;;;6199193;27;80444;-60
2023/07/12 13:43:54;;;;;;;12.10;6.97;;;27.80;61.70;;;;;;6196900;28;80858;-59
2023/07/12 13:46:55;;;;;;;15.13;7.47;;;27.70;61.10;;;;;;6199176;27;81325;-58
2023/07/12 13:49:55;;;;;;;12.77;7.32;;;27.80;61.90;;;;;;6191072;28;81247;-59
2023/07/12 13:52:57;;;;;;;14.02;8.00;;;27.80;61.50;;;;;;6200827;27;80103;-61
2023/07/12 13:55:58;;;;;;;12.55;6.38;;;27.80;61.60;;;;;;6197711;28;80401;-65
2023/07/12 13:58:58;;;;;;;10.40;6.90;;;27.80;61.40;;;;;;6193496;27;82597;-63
2023/07/12 14:01:59;;;;;;;11.68;7.85;;;27.90;61.30;;;;;;6199819;27;80679;-67
2023/07/12 14:04:59;;;;;;;22.08;7.10;;;27.80;60.60;;;;;;6186755;28;83709;-67
2023/07/12 14:08:00;;;;;;;10.93;6.78;;;27.90;60.70;;;;;;6188174;28;81032;-65
2023/07/12 14:11:01;;;;;;;14.80;6.68;;;27.80;60.60;;;;;;6176537;28;82243;-66
2023/07/12 14:14:02;;;;;;;12.48;6.72;;;27.80;60.60;;;;;;6190041;28;80115;-58
2023/07/12 14:17:02;;;;;;;10.63;7.55;;;27.80;60.30;;;;;;6196592;28;80613;-59
2023/07/12 14:20:03;;;;;;;11.68;7.03;;;27.80;60.50;;;;;;6189921;27;80525;-59
2023/07/12 14:23:03;;;;;;;11.20;6.95;;;27.80;60.50;;;;;;6177677;28;80724;-58
2023/07/12 14:26:04;;;;;;;9.35;7.15;;;27.80;60.60;;;;;;6177951;28;81182;-58
2023/07/12 14:29:05;;;;;;;11.10;7.28;;;27.80;60.70;;;;;;6179851;28;80862;-70
2023/07/12 14:32:05;;;;;;;12.02;7.13;;;27.80;61.20;;;;;;6187494;28;85735;-57
2023/07/12 14:35:06;;;;;;;9.70;6.80;;;27.70;61.50;;;;;;6191788;28;80271;-59
2023/07/12 14:38:06;;;;;;;13.60;6.70;;;27.70;61.90;;;;;;6198178;27;80289;-58
2023/07/12 14:41:07;;;;;;;10.15;6.38;;;27.70;61.40;;;;;;6195330;27;80543;-57
2023/07/12 14:44:07;;;;;;;10.05;6.22;;;27.80;61.20;;;;;;6193704;27;83552;-58
2023/07/12 14:47:08;;;;;;;8.75;6.57;;;27.80;60.40;;;;;;6199532;28;80271;-58
2023/07/12 14:50:08;;;;;;;10.50;6.40;;;27.80;60.20;;;;;;6191353;28;80682;-56
2023/07/12 14:53:10;;;;;;;8.65;6.70;;;27.80;60.30;;;;;;6179191;28;80109;-54
2023/07/12 14:56:10;;;;;;;7.75;5.78;;;27.90;60.20;;;;;;6193133;28;80366;-58
2023/07/12 14:59:11;;;;;;;9.93;5.50;;;27.90;59.90;;;;;;6197690;27;80761;-58
2023/07/12 15:02:12;;;;;;;10.75;6.10;;;27.90;59.70;;;;;;6187086;28;80348;-57
2023/07/12 15:05:12;;;;;;;8.10;5.85;;;27.90;59.70;;;;;;6200139;27;81062;-56
2023/07/12 15:08:13;;;;;;;9.18;6.65;;;28.00;59.80;;;;;;6192898;28;80380;-56
2023/07/12 15:11:13;;;;;;;13.30;6.45;;;28.00;60.10;;;;;;6186773;28;80938;-68
2023/07/12 15:14:14;;;;;;;8.77;6.65;;;28.00;60.80;;;;;;6204431;28;87766;-70
2023/07/12 15:17:15;;;;;;;11.65;6.60;;;28.00;61.00;;;;;;6203078;28;80829;-70
2023/07/12 15:20:16;;;;;;;8.20;5.97;;;27.90;60.70;;;;;;6191619;28;81034;-65
2023/07/12 15:23:17;;;;;;;11.30;6.10;;;28.00;60.60;;;;;;6209830;28;80339;-66
2023/07/12 15:26:17;;;;;;;11.65;7.20;;;28.00;60.60;;;;;;6201491;28;80437;-71
2023/07/12 15:29:18;;;;;;;9.93;5.93;;;28.00;60.80;;;;;;6186138;28;80690;-75
2023/07/12 15:32:18;;;;;;;8.52;5.60;;;27.90;61.00;;;;;;6194499;28;80557;-68